sensor_id;sensor_type;location;lat;lon;timestamp;pressure;altitude;pressure_sealevel;temperature;humidity
50774;BME280;36745;48.544;8.918;2023-02-12T00:00:15;99288.47;;;3.44;83.52
50774;BME280;36745;48.544;8.918;2023-02-12T00:03:35;99286.88;;;3.43;83.91
50774;BME280;36745;48.544;8.918;2023-02-12T00:06:54;99279.59;;;3.35;84.24
50774;BME280;36745;48.544;8.918;2023-02-12T00:10:14;99283.69;;;3.41;85.05
50774;BME280;36745;48.544;8.918;2023-02-12T00:13:34;99284.69;;;3.49;84.23
50774;BME280;36745;48.544;8.918;2023-02-12T00:16:54;99263.69;;;3.49;84.98
50774;BME280;36745;48.544;8.918;2023-02-12T00:20:14;99285.91;;;3.51;84.34
50774;BME280;36745;48.544;8.918;2023-02-12T00:23:34;99278.34;;;3.45;84.66
50774;BME280;36745;48.544;8.918;2023-02-12T00:26:54;99277.34;;;3.37;84.74
50774;BME280;36745;48.544;8.918;2023-02-12T00:30:14;99285.50;;;3.37;85.37
50774;BME280;36745;48.544;8.918;2023-02-12T00:33:34;99283.69;;;3.41;85.29
50774;BME280;36745;48.544;8.918;2023-02-12T00:36:53;99284.84;;;3.40;84.44
50774;BME280;36745;48.544;8.918;2023-02-12T00:40:13;99287.34;;;3.33;85.79
50774;BME280;36745;48.544;8.918;2023-02-12T00:43:33;99291.22;;;3.32;85.40
50774;BME280;36745;48.544;8.918;2023-02-12T00:46:53;99288.03;;;3.30;85.51
50774;BME280;36745;48.544;8.918;2023-02-12T00:50:13;99285.06;;;3.35;85.82
50774;BME280;36745;48.544;8.918;2023-02-12T00:53:33;99289.75;;;3.34;86.04
50774;BME280;36745;48.544;8.918;2023-02-12T00:56:53;99289.13;;;3.41;86.28
50774;BME280;36745;48.544;8.918;2023-02-12T01:00:14;99287.56;;;3.40;86.04
50774;BME280;36745;48.544;8.918;2023-02-12T01:03:34;99288.00;;;3.42;85.83
50774;BME280;36745;48.544;8.918;2023-02-12T01:06:54;99295.28;;;3.38;86.18
50774;BME280;36745;48.544;8.918;2023-02-12T01:10:14;99296.66;;;3.32;86.44
50774;BME280;36745;48.544;8.918;2023-02-12T01:13:34;99299.84;;;3.34;86.29
50774;BME280;36745;48.544;8.918;2023-02-12T01:16:53;99306.44;;;3.33;86.28
50774;BME280;36745;48.544;8.918;2023-02-12T01:20:16;99302.91;;;3.32;86.86
50774;BME280;36745;48.544;8.918;2023-02-12T01:23:35;99296.44;;;3.25;86.87
50774;BME280;36745;48.544;8.918;2023-02-12T01:26:55;99289.50;;;3.40;87.20
50774;BME280;36745;48.544;8.918;2023-02-12T01:30:15;99285.97;;;3.39;87.39
50774;BME280;36745;48.544;8.918;2023-02-12T01:33:35;99285.28;;;3.42;87.02
50774;BME280;36745;48.544;8.918;2023-02-12T01:36:55;99285.97;;;3.39;86.99
50774;BME280;36745;48.544;8.918;2023-02-12T01:40:16;99292.56;;;3.38;87.12
50774;BME280;36745;48.544;8.918;2023-02-12T01:43:36;99285.75;;;3.32;87.04
50774;BME280;36745;48.544;8.918;2023-02-12T01:46:59;99291.91;;;3.29;87.66
50774;BME280;36745;48.544;8.918;2023-02-12T01:50:19;99277.81;;;3.27;87.28
50774;BME280;36745;48.544;8.918;2023-02-12T01:53:45;99277.91;;;3.30;87.97
50774;BME280;36745;48.544;8.918;2023-02-12T01:57:08;99286.56;;;3.32;87.86
50774;BME280;36745;48.544;8.918;2023-02-12T02:00:28;99285.53;;;3.25;88.44
50774;BME280;36745;48.544;8.918;2023-02-12T02:03:51;99291.22;;;3.32;88.10
50774;BME280;36745;48.544;8.918;2023-02-12T02:07:12;99285.75;;;3.32;88.95
50774;BME280;36745;48.544;8.918;2023-02-12T02:10:32;99285.97;;;3.39;88.33
50774;BME280;36745;48.544;8.918;2023-02-12T02:13:53;99284.47;;;3.42;87.51
50774;BME280;36745;48.544;8.918;2023-02-12T02:17:50;99282.53;;;3.42;88.68
50774;BME280;36745;48.544;8.918;2023-02-12T02:30:11;99268.81;;;3.38;88.86
50774;BME280;36745;48.544;8.918;2023-02-12T02:33:31;99264.16;;;3.39;89.22
50774;BME280;36745;48.544;8.918;2023-02-12T02:40:43;99264.34;;;3.46;89.03
50774;BME280;36745;48.544;8.918;2023-02-12T02:44:14;99267.31;;;3.41;89.42
50774;BME280;36745;48.544;8.918;2023-02-12T02:47:48;99262.56;;;3.38;89.65
50774;BME280;36745;48.544;8.918;2023-02-12T02:51:14;99254.94;;;3.44;89.30
50774;BME280;36745;48.544;8.918;2023-02-12T02:54:43;99262.56;;;3.38;89.47
50774;BME280;36745;48.544;8.918;2023-02-12T02:58:16;99264.34;;;3.46;89.38
50774;BME280;36745;48.544;8.918;2023-02-12T03:01:56;99261.06;;;3.41;89.53
50774;BME280;36745;48.544;8.918;2023-02-12T03:08:43;99261.47;;;3.27;89.86
50774;BME280;36745;48.544;8.918;2023-02-12T03:12:10;99259.28;;;3.32;89.79
50774;BME280;36745;48.544;8.918;2023-02-12T03:15:40;99252.59;;;3.30;89.92
50774;BME280;36745;48.544;8.918;2023-02-12T03:19:14;99248.31;;;3.29;89.92
50774;BME280;36745;48.544;8.918;2023-02-12T03:22:37;99251.94;;;3.21;90.05
50774;BME280;36745;48.544;8.918;2023-02-12T03:26:03;99260.25;;;3.12;90.09
50774;BME280;36745;48.544;8.918;2023-02-12T03:29:25;99255.59;;;3.13;90.56
50774;BME280;36745;48.544;8.918;2023-02-12T03:33:48;99268.78;;;3.11;90.44
50774;BME280;36745;48.544;8.918;2023-02-12T03:36:48;99270.38;;;3.12;90.91
50774;BME280;36745;48.544;8.918;2023-02-12T03:40:18;99268.06;;;3.14;90.60
50774;BME280;36745;48.544;8.918;2023-02-12T03:43:48;99271.59;;;3.14;91.19
50774;BME280;36745;48.544;8.918;2023-02-12T03:47:19;99269.22;;;3.13;91.41
50774;BME280;36745;48.544;8.918;2023-02-12T03:50:48;99271.72;;;3.18;90.98
50774;BME280;36745;48.544;8.918;2023-02-12T03:54:13;99277.03;;;3.14;91.45
50774;BME280;36745;48.544;8.918;2023-02-12T03:57:48;99276.25;;;3.14;91.47
50774;BME280;36745;48.544;8.918;2023-02-12T04:01:09;99270.13;;;3.17;91.46
50774;BME280;36745;48.544;8.918;2023-02-12T04:04:30;99272.16;;;3.20;91.61
50774;BME280;36745;48.544;8.918;2023-02-12T04:07:51;99272.72;;;3.13;91.79
50774;BME280;36745;48.544;8.918;2023-02-12T04:14:53;99275.13;;;3.15;92.26
50774;BME280;36745;48.544;8.918;2023-02-12T04:18:41;99282.84;;;3.13;91.94
50774;BME280;36745;48.544;8.918;2023-02-12T04:22:13;99278.16;;;3.13;92.47
50774;BME280;36745;48.544;8.918;2023-02-12T04:32:48;99286.00;;;3.15;92.22
50774;BME280;36745;48.544;8.918;2023-02-12T04:36:33;99294.19;;;3.15;92.18
50774;BME280;36745;48.544;8.918;2023-02-12T04:39:54;99291.78;;;3.25;91.86
50774;BME280;36745;48.544;8.918;2023-02-12T04:43:28;99292.81;;;3.21;92.00
50774;BME280;36745;48.544;8.918;2023-02-12T04:46:50;99289.75;;;3.22;92.25
50774;BME280;36745;48.544;8.918;2023-02-12T04:50:10;99288.50;;;3.20;92.18
50774;BME280;36745;48.544;8.918;2023-02-12T04:53:30;99293.16;;;3.19;92.05
50774;BME280;36745;48.544;8.918;2023-02-12T04:56:50;99298.28;;;3.21;92.91
50774;BME280;36745;48.544;8.918;2023-02-12T05:00:12;99298.25;;;3.33;91.97
50774;BME280;36745;48.544;8.918;2023-02-12T05:03:32;99293.47;;;3.30;91.99
50774;BME280;36745;48.544;8.918;2023-02-12T05:06:52;99292.47;;;3.22;92.52
50774;BME280;36745;48.544;8.918;2023-02-12T05:10:12;99301.69;;;3.18;92.65
50774;BME280;36745;48.544;8.918;2023-02-12T05:13:33;99302.69;;;3.13;92.00
50774;BME280;36745;48.544;8.918;2023-02-12T05:16:53;99299.88;;;3.10;92.18
50774;BME280;36745;48.544;8.918;2023-02-12T05:20:13;99292.16;;;3.12;93.01
50774;BME280;36745;48.544;8.918;2023-02-12T05:23:35;99291.94;;;3.05;92.85
50774;BME280;36745;48.544;8.918;2023-02-12T05:26:55;99292.41;;;3.07;92.74
50774;BME280;36745;48.544;8.918;2023-02-12T05:30:15;99295.13;;;3.07;92.87
50774;BME280;36745;48.544;8.918;2023-02-12T05:33:35;99282.63;;;3.06;93.28
50774;BME280;36745;48.544;8.918;2023-02-12T05:36:55;99281.03;;;3.05;93.20
50774;BME280;36745;48.544;8.918;2023-02-12T05:40:15;99297.38;;;3.05;93.22
50774;BME280;36745;48.544;8.918;2023-02-12T05:43:35;99287.50;;;3.12;93.07
50774;BME280;36745;48.544;8.918;2023-02-12T05:46:55;99293.75;;;3.13;93.27
50774;BME280;36745;48.544;8.918;2023-02-12T05:50:14;99294.56;;;3.01;93.08
50774;BME280;36745;48.544;8.918;2023-02-12T05:53:35;99287.75;;;2.95;93.54
50774;BME280;36745;48.544;8.918;2023-02-12T05:56:55;99289.69;;;3.07;93.17
50774;BME280;36745;48.544;8.918;2023-02-12T06:00:15;99291.47;;;3.03;94.09
50774;BME280;36745;48.544;8.918;2023-02-12T06:03:35;99292.25;;;3.03;93.83
50774;BME280;36745;48.544;8.918;2023-02-12T06:06:55;99286.38;;;3.01;94.28
50774;BME280;36745;48.544;8.918;2023-02-12T06:10:15;99298.19;;;3.05;93.92
50774;BME280;36745;48.544;8.918;2023-02-12T06:13:35;99293.53;;;3.06;94.19
50774;BME280;36745;48.544;8.918;2023-02-12T06:16:55;99281.50;;;3.07;93.96
50774;BME280;36745;48.544;8.918;2023-02-12T06:20:15;99295.00;;;3.03;93.75
50774;BME280;36745;48.544;8.918;2023-02-12T06:23:35;99298.31;;;2.97;94.10
50774;BME280;36745;48.544;8.918;2023-02-12T06:26:54;99296.25;;;2.93;94.28
50774;BME280;36745;48.544;8.918;2023-02-12T06:30:14;99292.41;;;2.94;93.67
50774;BME280;36745;48.544;8.918;2023-02-12T06:33:34;99296.81;;;2.87;93.55
50774;BME280;36745;48.544;8.918;2023-02-12T06:36:54;99292.88;;;2.84;93.71
50774;BME280;36745;48.544;8.918;2023-02-12T06:40:14;99303.75;;;2.84;94.25
50774;BME280;36745;48.544;8.918;2023-02-12T06:43:34;99306.91;;;2.86;94.50
50774;BME280;36745;48.544;8.918;2023-02-12T06:46:54;99304.19;;;2.86;94.57
50774;BME280;36745;48.544;8.918;2023-02-12T06:50:14;99304.66;;;2.88;94.42
50774;BME280;36745;48.544;8.918;2023-02-12T06:53:34;99306.47;;;2.84;94.53
50774;BME280;36745;48.544;8.918;2023-02-12T06:56:53;99317.03;;;2.86;94.75
50774;BME280;36745;48.544;8.918;2023-02-12T07:00:13;99309.44;;;2.91;95.68
50774;BME280;36745;48.544;8.918;2023-02-12T07:03:32;99315.56;;;3.01;94.73
50774;BME280;36745;48.544;8.918;2023-02-12T07:06:52;99315.00;;;2.95;95.41
50774;BME280;36745;48.544;8.918;2023-02-12T07:10:12;99323.25;;;2.99;95.30
50774;BME280;36745;48.544;8.918;2023-02-12T07:13:32;99325.31;;;3.02;95.52
50774;BME280;36745;48.544;8.918;2023-02-12T07:16:54;99320.22;;;3.12;95.38
50774;BME280;36745;48.544;8.918;2023-02-12T07:20:14;99320.78;;;3.18;95.41
50774;BME280;36745;48.544;8.918;2023-02-12T07:23:34;99316.88;;;3.31;95.32
50774;BME280;36745;48.544;8.918;2023-02-12T07:26:54;99328.22;;;3.45;94.97
50774;BME280;36745;48.544;8.918;2023-02-12T07:30:14;99321.38;;;3.51;94.67
50774;BME280;36745;48.544;8.918;2023-02-12T07:33:33;99317.50;;;3.52;94.83
50774;BME280;36745;48.544;8.918;2023-02-12T07:36:53;99316.84;;;3.55;94.06
50774;BME280;36745;48.544;8.918;2023-02-12T07:40:13;99323.66;;;3.49;94.28
50774;BME280;36745;48.544;8.918;2023-02-12T07:43:33;99331.38;;;3.47;94.70
50774;BME280;36745;48.544;8.918;2023-02-12T07:46:53;99323.66;;;3.49;94.83
50774;BME280;36745;48.544;8.918;2023-02-12T07:50:13;99325.81;;;3.56;94.63
50774;BME280;36745;48.544;8.918;2023-02-12T07:53:33;99331.34;;;3.59;95.03
50774;BME280;36745;48.544;8.918;2023-02-12T07:56:53;99330.41;;;3.67;94.88
50774;BME280;36745;48.544;8.918;2023-02-12T08:00:13;99320.34;;;3.84;95.30
50774;BME280;36745;48.544;8.918;2023-02-12T08:03:33;99318.97;;;3.90;95.23
50774;BME280;36745;48.544;8.918;2023-02-12T08:06:54;99323.72;;;4.05;95.47
50774;BME280;36745;48.544;8.918;2023-02-12T08:10:14;99317.22;;;4.25;95.37
50774;BME280;36745;48.544;8.918;2023-02-12T08:13:35;99322.09;;;4.32;94.21
50774;BME280;36745;48.544;8.918;2023-02-12T08:16:55;99318.63;;;4.19;94.22
50774;BME280;36745;48.544;8.918;2023-02-12T08:20:15;99321.97;;;4.28;94.29
50774;BME280;36745;48.544;8.918;2023-02-12T08:23:34;99316.63;;;4.32;94.17
50774;BME280;36745;48.544;8.918;2023-02-12T08:26:55;99325.44;;;4.41;93.99
50774;BME280;36745;48.544;8.918;2023-02-12T08:30:15;99319.19;;;4.40;93.37
50774;BME280;36745;48.544;8.918;2023-02-12T08:33:35;99317.06;;;4.34;93.50
50774;BME280;36745;48.544;8.918;2023-02-12T08:36:55;99323.94;;;4.43;94.39
50774;BME280;36745;48.544;8.918;2023-02-12T08:40:15;99314.06;;;4.54;93.89
50774;BME280;36745;48.544;8.918;2023-02-12T08:43:35;99318.78;;;4.70;94.83
50774;BME280;36745;48.544;8.918;2023-02-12T08:46:55;99316.47;;;4.87;94.13
50774;BME280;36745;48.544;8.918;2023-02-12T08:50:15;99318.13;;;4.92;93.85
50774;BME280;36745;48.544;8.918;2023-02-12T08:53:36;99322.19;;;4.98;93.62
50774;BME280;36745;48.544;8.918;2023-02-12T08:56:58;99313.00;;;5.06;93.64
50774;BME280;36745;48.544;8.918;2023-02-12T09:00:19;99308.06;;;5.12;93.14
50774;BME280;36745;48.544;8.918;2023-02-12T09:03:39;99310.88;;;5.15;92.74
50774;BME280;36745;48.544;8.918;2023-02-12T09:06:58;99312.47;;;5.16;93.17
50774;BME280;36745;48.544;8.918;2023-02-12T09:10:18;99316.34;;;5.15;92.80
50774;BME280;36745;48.544;8.918;2023-02-12T09:13:38;99317.19;;;5.19;92.56
50774;BME280;36745;48.544;8.918;2023-02-12T09:16:59;99314.19;;;5.24;92.82
50774;BME280;36745;48.544;8.918;2023-02-12T09:20:19;99317.69;;;5.40;92.83
50774;BME280;36745;48.544;8.918;2023-02-12T09:23:39;99320.94;;;5.46;91.86
50774;BME280;36745;48.544;8.918;2023-02-12T09:26:59;99317.69;;;5.40;91.65
50774;BME280;36745;48.544;8.918;2023-02-12T09:30:19;99317.78;;;5.44;91.73
50774;BME280;36745;48.544;8.918;2023-02-12T09:33:39;99320.28;;;5.53;91.67
50774;BME280;36745;48.544;8.918;2023-02-12T09:36:59;99325.94;;;5.60;91.38
50774;BME280;36745;48.544;8.918;2023-02-12T09:40:35;99323.63;;;5.62;91.48
50774;BME280;36745;48.544;8.918;2023-02-12T09:47:42;99328.25;;;5.77;91.03
50774;BME280;36745;48.544;8.918;2023-02-12T09:51:07;99329.56;;;5.83;91.31
50774;BME280;36745;48.544;8.918;2023-02-12T09:54:34;99328.91;;;5.89;90.89
50774;BME280;36745;48.544;8.918;2023-02-12T09:57:56;99327.28;;;6.04;91.16
50774;BME280;36745;48.544;8.918;2023-02-12T10:01:19;99323.88;;;6.11;90.55
50774;BME280;36745;48.544;8.918;2023-02-12T10:04:43;99320.78;;;6.12;90.44
50774;BME280;36745;48.544;8.918;2023-02-12T10:15:36;99321.91;;;6.30;90.15
50774;BME280;36745;48.544;8.918;2023-02-12T10:25:55;99309.13;;;6.61;90.13
50774;BME280;36745;48.544;8.918;2023-02-12T10:29:25;99310.06;;;6.68;89.87
50774;BME280;36745;48.544;8.918;2023-02-12T10:32:49;99303.78;;;6.68;88.94
50774;BME280;36745;48.544;8.918;2023-02-12T10:40:03;99303.38;;;6.92;88.12
50774;BME280;36745;48.544;8.918;2023-02-12T10:43:23;99291.78;;;7.02;88.40
50774;BME280;36745;48.544;8.918;2023-02-12T10:46:43;99295.16;;;7.18;88.01
50774;BME280;36745;48.544;8.918;2023-02-12T10:50:15;99293.19;;;7.15;86.88
50774;BME280;36745;48.544;8.918;2023-02-12T10:53:37;99289.78;;;7.26;85.71
50774;BME280;36745;48.544;8.918;2023-02-12T10:57:03;99287.22;;;7.10;85.70
50774;BME280;36745;48.544;8.918;2023-02-12T11:00:33;99281.06;;;7.16;86.04
50774;BME280;36745;48.544;8.918;2023-02-12T11:03:55;99285.16;;;7.30;86.58
50774;BME280;36745;48.544;8.918;2023-02-12T11:07:16;99281.72;;;7.36;85.12
50774;BME280;36745;48.544;8.918;2023-02-12T11:10:38;99284.31;;;7.26;84.63
50774;BME280;36745;48.544;8.918;2023-02-12T11:14:02;99283.88;;;7.24;84.47
50774;BME280;36745;48.544;8.918;2023-02-12T11:17:32;99278.09;;;7.29;85.34
50774;BME280;36745;48.544;8.918;2023-02-12T11:20:57;99278.28;;;7.43;85.98
50774;BME280;36745;48.544;8.918;2023-02-12T11:24:29;99273.91;;;7.68;85.02
50774;BME280;36745;48.544;8.918;2023-02-12T11:31:31;99267.69;;;7.71;84.06
50774;BME280;36745;48.544;8.918;2023-02-12T11:35:14;99267.69;;;7.71;83.32
50774;BME280;36745;48.544;8.918;2023-02-12T11:38:39;99255.78;;;7.93;84.08
50774;BME280;36745;48.544;8.918;2023-02-12T11:42:19;99253.16;;;8.04;83.64
50774;BME280;36745;48.544;8.918;2023-02-12T11:45:43;99256.00;;;8.15;82.78
50774;BME280;36745;48.544;8.918;2023-02-12T11:49:04;99258.88;;;8.29;82.97
50774;BME280;36745;48.544;8.918;2023-02-12T11:52:34;99259.25;;;8.27;82.42
50774;BME280;36745;48.544;8.918;2023-02-12T11:56:07;99256.34;;;8.10;80.97
50774;BME280;36745;48.544;8.918;2023-02-12T12:02:56;99258.66;;;8.08;81.81
50774;BME280;36745;48.544;8.918;2023-02-12T12:06:38;99246.69;;;7.89;80.22
50774;BME280;36745;48.544;8.918;2023-02-12T12:13:42;99240.34;;;8.59;81.41
50774;BME280;36745;48.544;8.918;2023-02-12T12:17:13;99246.00;;;8.80;81.23
50774;BME280;36745;48.544;8.918;2023-02-12T12:24:59;99222.47;;;11.75;83.21
50774;BME280;36745;48.544;8.918;2023-02-12T12:31:48;99222.88;;;12.87;75.01
50774;BME280;36745;48.544;8.918;2023-02-12T12:35:13;99219.53;;;12.07;68.00
50774;BME280;36745;48.544;8.918;2023-02-12T12:46:33;99207.94;;;13.22;68.97
50774;BME280;36745;48.544;8.918;2023-02-12T13:09:14;99195.81;;;11.26;63.24
50774;BME280;36745;48.544;8.918;2023-02-12T13:12:39;99197.69;;;11.47;63.24
50774;BME280;36745;48.544;8.918;2023-02-12T13:16:21;99197.84;;;10.93;65.35
50774;BME280;36745;48.544;8.918;2023-02-12T13:20:18;99199.38;;;11.19;65.40
50774;BME280;36745;48.544;8.918;2023-02-12T13:26:56;99190.81;;;10.50;64.05
50774;BME280;36745;48.544;8.918;2023-02-12T13:30:23;99192.38;;;10.19;65.76
50774;BME280;36745;48.544;8.918;2023-02-12T13:33:51;99178.19;;;10.74;67.76
50774;BME280;36745;48.544;8.918;2023-02-12T13:37:19;99176.50;;;11.22;66.71
50774;BME280;36745;48.544;8.918;2023-02-12T13:40:40;99174.22;;;10.85;65.38
50774;BME280;36745;48.544;8.918;2023-02-12T13:44:25;99175.00;;;10.82;66.35
50774;BME280;36745;48.544;8.918;2023-02-12T13:52:16;99182.06;;;9.88;66.69
50774;BME280;36745;48.544;8.918;2023-02-12T13:55:37;99175.75;;;9.91;68.02
50774;BME280;36745;48.544;8.918;2023-02-12T13:58:58;99177.31;;;9.81;68.18
50774;BME280;36745;48.544;8.918;2023-02-12T14:06:15;99176.06;;;9.57;68.46
50774;BME280;36745;48.544;8.918;2023-02-12T14:09:46;99174.50;;;9.63;68.67
50774;BME280;36745;48.544;8.918;2023-02-12T14:13:21;99166.22;;;9.49;69.16
50774;BME280;36745;48.544;8.918;2023-02-12T14:16:42;99159.53;;;9.54;69.95
50774;BME280;36745;48.544;8.918;2023-02-12T14:23:44;99151.16;;;9.22;69.46
50774;BME280;36745;48.544;8.918;2023-02-12T14:27:06;99146.81;;;9.21;69.43
50774;BME280;36745;48.544;8.918;2023-02-12T14:30:38;99140.13;;;9.15;70.48
50774;BME280;36745;48.544;8.918;2023-02-12T14:37:41;99135.72;;;9.00;71.01
50774;BME280;36745;48.544;8.918;2023-02-12T14:41:28;99125.16;;;9.09;70.63
50774;BME280;36745;48.544;8.918;2023-02-12T14:44:57;99127.78;;;8.88;70.89
50774;BME280;36745;48.544;8.918;2023-02-12T14:55:37;99129.66;;;8.69;72.39
50774;BME280;36745;48.544;8.918;2023-02-12T14:58:59;99125.72;;;8.63;72.52
50774;BME280;36745;48.544;8.918;2023-02-12T15:02:25;99141.00;;;8.61;72.89
50774;BME280;36745;48.544;8.918;2023-02-12T15:05:57;99145.69;;;8.60;72.96
50774;BME280;36745;48.544;8.918;2023-02-12T15:09:27;99133.53;;;8.61;73.18
50774;BME280;36745;48.544;8.918;2023-02-12T15:13:08;99137.06;;;8.62;73.46
50774;BME280;36745;48.544;8.918;2023-02-12T15:16:34;99131.56;;;8.58;73.53
50774;BME280;36745;48.544;8.918;2023-02-12T15:20:19;99143.66;;;8.50;73.37
50774;BME280;36745;48.544;8.918;2023-02-12T15:23:43;99138.53;;;8.49;74.46
50774;BME280;36745;48.544;8.918;2023-02-12T15:27:03;99134.19;;;8.44;74.19
50774;BME280;36745;48.544;8.918;2023-02-12T15:30:33;99130.22;;;8.38;74.04
50774;BME280;36745;48.544;8.918;2023-02-12T15:33:56;99130.19;;;8.31;74.11
50774;BME280;36745;48.544;8.918;2023-02-12T15:37:25;99134.09;;;8.30;74.70
50774;BME280;36745;48.544;8.918;2023-02-12T15:40:58;99123.81;;;8.23;74.32
50774;BME280;36745;48.544;8.918;2023-02-12T15:47:58;99133.06;;;8.05;75.09
50774;BME280;36745;48.544;8.918;2023-02-12T15:51:32;99121.72;;;8.06;74.74
50774;BME280;36745;48.544;8.918;2023-02-12T15:54:53;99132.97;;;7.94;75.74
50774;BME280;36745;48.544;8.918;2023-02-12T15:58:32;99128.56;;;7.82;75.71
50774;BME280;36745;48.544;8.918;2023-02-12T16:02:00;99138.25;;;7.73;75.49
50774;BME280;36745;48.544;8.918;2023-02-12T16:05:23;99140.50;;;7.60;76.62
50774;BME280;36745;48.544;8.918;2023-02-12T16:08:47;99139.72;;;7.63;76.12
50774;BME280;36745;48.544;8.918;2023-02-12T16:12:12;99128.66;;;7.52;76.66
50774;BME280;36745;48.544;8.918;2023-02-12T16:15:33;99136.34;;;7.40;77.19
50774;BME280;36745;48.544;8.918;2023-02-12T16:19:29;99124.47;;;7.29;76.82
50774;BME280;36745;48.544;8.918;2023-02-12T16:22:51;99127.78;;;7.11;77.15
50774;BME280;36745;48.544;8.918;2023-02-12T16:26:20;99127.19;;;6.95;77.45
50774;BME280;36745;48.544;8.918;2023-02-12T16:30:05;99132.25;;;6.93;77.70
50774;BME280;36745;48.544;8.918;2023-02-12T16:37:03;99133.88;;;6.68;79.01
50774;BME280;36745;48.544;8.918;2023-02-12T16:44:36;99131.16;;;6.42;78.74
50774;BME280;36745;48.544;8.918;2023-02-12T16:48:00;99134.78;;;6.26;78.80
50774;BME280;36745;48.544;8.918;2023-02-12T16:51:27;99146.16;;;6.02;79.02
50774;BME280;36745;48.544;8.918;2023-02-12T16:54:50;99140.78;;;5.86;79.25
50774;BME280;36745;48.544;8.918;2023-02-12T16:58:09;99149.75;;;5.64;78.96
50774;BME280;36745;48.544;8.918;2023-02-12T17:01:35;99146.75;;;5.50;79.61
50774;BME280;36745;48.544;8.918;2023-02-12T17:04:54;99148.00;;;5.33;80.18
50774;BME280;36745;48.544;8.918;2023-02-12T17:08:22;99158.84;;;5.30;80.01
50774;BME280;36745;48.544;8.918;2023-02-12T17:11:42;99157.72;;;5.12;79.82
50774;BME280;36745;48.544;8.918;2023-02-12T17:15:03;99163.44;;;4.87;80.12
50774;BME280;36745;48.544;8.918;2023-02-12T17:18:23;99168.03;;;4.83;80.89
50774;BME280;36745;48.544;8.918;2023-02-12T17:21:45;99170.09;;;4.71;80.78
50774;BME280;36745;48.544;8.918;2023-02-12T17:25:08;99171.78;;;4.59;81.20
50774;BME280;36745;48.544;8.918;2023-02-12T17:28:28;99171.94;;;4.67;81.31
50774;BME280;36745;48.544;8.918;2023-02-12T17:31:49;99173.41;;;4.45;81.38
50774;BME280;36745;48.544;8.918;2023-02-12T17:35:12;99181.78;;;4.36;81.90
50774;BME280;36745;48.544;8.918;2023-02-12T17:38:32;99175.34;;;4.29;82.13
50774;BME280;36745;48.544;8.918;2023-02-12T17:41:51;99178.88;;;4.13;82.25
50774;BME280;36745;48.544;8.918;2023-02-12T17:45:11;99184.00;;;3.99;82.98
50774;BME280;36745;48.544;8.918;2023-02-12T17:48:31;99196.56;;;3.88;83.05
50774;BME280;36745;48.544;8.918;2023-02-12T17:51:51;99196.38;;;3.81;83.44
50774;BME280;36745;48.544;8.918;2023-02-12T17:55:11;99209.72;;;3.70;83.84
50774;BME280;36745;48.544;8.918;2023-02-12T17:58:32;99205.56;;;3.61;83.79
50774;BME280;36745;48.544;8.918;2023-02-12T18:01:51;99202.56;;;3.50;84.79
50774;BME280;36745;48.544;8.918;2023-02-12T18:05:11;99206.31;;;3.46;84.98
50774;BME280;36745;48.544;8.918;2023-02-12T18:08:31;99206.38;;;3.33;84.97
50774;BME280;36745;48.544;8.918;2023-02-12T18:11:51;99207.84;;;3.31;85.27
50774;BME280;36745;48.544;8.918;2023-02-12T18:15:11;99206.75;;;3.20;84.84
50774;BME280;36745;48.544;8.918;2023-02-12T18:18:32;99214.06;;;3.04;84.79
50774;BME280;36745;48.544;8.918;2023-02-12T18:21:52;99204.53;;;2.97;85.46
50774;BME280;36745;48.544;8.918;2023-02-12T18:25:11;99216.03;;;2.91;85.59
50774;BME280;36745;48.544;8.918;2023-02-12T18:28:32;99209.47;;;2.80;85.33
50774;BME280;36745;48.544;8.918;2023-02-12T18:31:53;99213.78;;;2.69;86.00
50774;BME280;36745;48.544;8.918;2023-02-12T18:35:13;99213.47;;;2.58;86.25
50774;BME280;36745;48.544;8.918;2023-02-12T18:38:34;99211.28;;;2.51;86.33
50774;BME280;36745;48.544;8.918;2023-02-12T18:41:54;99213.69;;;2.41;85.54
50774;BME280;36745;48.544;8.918;2023-02-12T18:45:15;99223.44;;;2.30;85.97
50774;BME280;36745;48.544;8.918;2023-02-12T18:48:38;99212.75;;;2.25;86.66
50774;BME280;36745;48.544;8.918;2023-02-12T18:51:58;99215.25;;;2.18;86.67
50774;BME280;36745;48.544;8.918;2023-02-12T18:55:19;99207.06;;;2.05;87.53
50774;BME280;36745;48.544;8.918;2023-02-12T18:58:39;99210.69;;;1.97;87.32
50774;BME280;36745;48.544;8.918;2023-02-12T19:02:02;99206.69;;;1.83;86.63
50774;BME280;36745;48.544;8.918;2023-02-12T19:05:22;99207.25;;;1.76;88.26
50774;BME280;36745;48.544;8.918;2023-02-12T19:08:42;99203.63;;;1.72;88.05
50774;BME280;36745;48.544;8.918;2023-02-12T19:12:02;99211.59;;;1.56;87.24
50774;BME280;36745;48.544;8.918;2023-02-12T19:15:21;99207.38;;;1.47;88.24
50774;BME280;36745;48.544;8.918;2023-02-12T19:18:42;99207.88;;;1.28;88.45
50774;BME280;36745;48.544;8.918;2023-02-12T19:22:01;99212.69;;;1.43;88.05
50774;BME280;36745;48.544;8.918;2023-02-12T19:25:21;99203.69;;;1.31;88.75
50774;BME280;36745;48.544;8.918;2023-02-12T19:28:41;99220.38;;;1.20;88.67
50774;BME280;36745;48.544;8.918;2023-02-12T19:32:04;99211.31;;;1.16;89.42
50774;BME280;36745;48.544;8.918;2023-02-12T19:35:24;99204.75;;;1.17;89.19
50774;BME280;36745;48.544;8.918;2023-02-12T19:38:45;99212.84;;;1.05;88.70
50774;BME280;36745;48.544;8.918;2023-02-12T19:42:05;99208.72;;;0.99;89.53
50774;BME280;36745;48.544;8.918;2023-02-12T19:45:25;99214.69;;;0.93;89.49
50774;BME280;36745;48.544;8.918;2023-02-12T19:48:46;99216.53;;;0.80;89.69
50774;BME280;36745;48.544;8.918;2023-02-12T19:52:06;99211.63;;;0.73;89.59
50774;BME280;36745;48.544;8.918;2023-02-12T19:55:26;99218.50;;;0.71;89.89
50774;BME280;36745;48.544;8.918;2023-02-12T19:58:46;99220.75;;;0.69;90.03
50774;BME280;36745;48.544;8.918;2023-02-12T20:02:05;99222.06;;;0.63;89.59
50774;BME280;36745;48.544;8.918;2023-02-12T20:05:25;99227.84;;;0.32;90.74
50774;BME280;36745;48.544;8.918;2023-02-12T20:08:45;99229.81;;;0.43;90.72
50774;BME280;36745;48.544;8.918;2023-02-12T20:12:05;99235.25;;;0.43;90.48
50774;BME280;36745;48.544;8.918;2023-02-12T20:15:24;99230.50;;;0.40;90.70
50774;BME280;36745;48.544;8.918;2023-02-12T20:18:46;99230.69;;;0.35;91.01
50774;BME280;36745;48.544;8.918;2023-02-12T20:22:06;99228.75;;;0.36;90.61